sensor_id;sensor_type;location;lat;lon;timestamp;temperature;humidity
68511;SHT31;55512;50.102;19.958;2024-01-30T00:01:22;-0.45;84.20
68511;SHT31;55512;50.102;19.958;2024-01-30T00:21:37;-0.70;84.00
68511;SHT31;55512;50.102;19.958;2024-01-30T00:24:41;-0.74;84.08
68511;SHT31;55512;50.102;19.958;2024-01-30T00:27:36;-0.80;84.07
68511;SHT31;55512;50.102;19.958;2024-01-30T00:30:28;-0.85;84.10
68511;SHT31;55512;50.102;19.958;2024-01-30T00:33:55;-0.86;84.18
68511;SHT31;55512;50.102;19.958;2024-01-30T00:40:54;-0.84;84.34
68511;SHT31;55512;50.102;19.958;2024-01-30T00:43:31;-0.89;84.30
68511;SHT31;55512;50.102;19.958;2024-01-30T00:46:40;-0.96;84.23
68511;SHT31;55512;50.102;19.958;2024-01-30T00:49:38;-0.96;84.30
68511;SHT31;55512;50.102;19.958;2024-01-30T00:52:27;-1.00;84.30
68511;SHT31;55512;50.102;19.958;2024-01-30T00:58:31;-0.99;84.43
68511;SHT31;55512;50.102;19.958;2024-01-30T01:01:27;-0.89;84.69
68511;SHT31;55512;50.102;19.958;2024-01-30T01:04:13;-0.90;84.67
68511;SHT31;55512;50.102;19.958;2024-01-30T01:10:06;-0.98;84.55
68511;SHT31;55512;50.102;19.958;2024-01-30T01:15:48;-1.17;84.30
68511;SHT31;55512;50.102;19.958;2024-01-30T01:18:44;-1.21;84.32
68511;SHT31;55512;50.102;19.958;2024-01-30T01:21:29;-1.18;84.45
68511;SHT31;55512;50.102;19.958;2024-01-30T01:27:50;-1.03;84.80
68511;SHT31;55512;50.102;19.958;2024-01-30T01:31:09;-1.11;84.64
68511;SHT31;55512;50.102;19.958;2024-01-30T01:34:00;-1.23;84.47
68511;SHT31;55512;50.102;19.958;2024-01-30T01:44:56;-1.46;84.50
68511;SHT31;55512;50.102;19.958;2024-01-30T01:48:05;-1.52;84.53
68511;SHT31;55512;50.102;19.958;2024-01-30T01:51:41;-1.53;84.66
68511;SHT31;55512;50.102;19.958;2024-01-30T01:54:52;-1.50;84.80
68511;SHT31;55512;50.102;19.958;2024-01-30T02:01:46;-1.38;85.00
68511;SHT31;55512;50.102;19.958;2024-01-30T02:08:00;-1.40;84.97
68511;SHT31;55512;50.102;19.958;2024-01-30T02:11:01;-1.43;84.95
68511;SHT31;55512;50.102;19.958;2024-01-30T02:17:27;-1.36;85.13
68511;SHT31;55512;50.102;19.958;2024-01-30T02:26:45;-1.42;85.00
68511;SHT31;55512;50.102;19.958;2024-01-30T02:29:30;-1.45;85.01
68511;SHT31;55512;50.102;19.958;2024-01-30T02:32:14;-1.55;84.87
68511;SHT31;55512;50.102;19.958;2024-01-30T02:35:22;-1.66;84.77
68511;SHT31;55512;50.102;19.958;2024-01-30T02:38:47;-1.68;84.85
68511;SHT31;55512;50.102;19.958;2024-01-30T02:44:58;-1.81;84.88
68511;SHT31;55512;50.102;19.958;2024-01-30T02:47:48;-1.82;84.94
68511;SHT31;55512;50.102;19.958;2024-01-30T02:50:27;-1.81;85.02
68511;SHT31;55512;50.102;19.958;2024-01-30T02:52:53;-1.76;85.12
68511;SHT31;55512;50.102;19.958;2024-01-30T02:55:19;-1.68;85.30
68511;SHT31;55512;50.102;19.958;2024-01-30T02:57:48;-1.63;85.38
68511;SHT31;55512;50.102;19.958;2024-01-30T03:00:13;-1.58;85.46
68511;SHT31;55512;50.102;19.958;2024-01-30T03:02:40;-1.51;85.55
68511;SHT31;55512;50.102;19.958;2024-01-30T03:05:34;-1.47;85.59
68511;SHT31;55512;50.102;19.958;2024-01-30T03:12:23;-1.57;85.44
68511;SHT31;55512;50.102;19.958;2024-01-30T03:15:55;-1.53;85.52
68511;SHT31;55512;50.102;19.958;2024-01-30T03:22:41;-1.47;85.60
68511;SHT31;55512;50.102;19.958;2024-01-30T03:39:09;-1.70;85.32
68511;SHT31;55512;50.102;19.958;2024-01-30T03:44:51;-1.49;85.60
68511;SHT31;55512;50.102;19.958;2024-01-30T03:50:55;-1.45;85.60
68511;SHT31;55512;50.102;19.958;2024-01-30T03:54:18;-1.49;85.55
68511;SHT31;55512;50.102;19.958;2024-01-30T04:00:15;-1.72;85.23
68511;SHT31;55512;50.102;19.958;2024-01-30T04:03:30;-1.84;85.18
68511;SHT31;55512;50.102;19.958;2024-01-30T04:06:17;-1.96;85.10
68511;SHT31;55512;50.102;19.958;2024-01-30T04:08:58;-2.03;85.10
68511;SHT31;55512;50.102;19.958;2024-01-30T04:12:33;-2.11;85.10
68511;SHT31;55512;50.102;19.958;2024-01-30T04:18:10;-2.07;85.41
68511;SHT31;55512;50.102;19.958;2024-01-30T04:20:37;-2.12;85.40
68511;SHT31;55512;50.102;19.958;2024-01-30T04:23:02;-2.16;85.43
68511;SHT31;55512;50.102;19.958;2024-01-30T04:25:31;-2.14;85.54
68511;SHT31;55512;50.102;19.958;2024-01-30T04:28:16;-2.16;85.57
68511;SHT31;55512;50.102;19.958;2024-01-30T04:31:07;-2.21;85.49
68511;SHT31;55512;50.102;19.958;2024-01-30T04:33:33;-2.26;85.50
68511;SHT31;55512;50.102;19.958;2024-01-30T04:35:59;-2.21;85.63
68511;SHT31;55512;50.102;19.958;2024-01-30T04:38:27;-2.11;85.86
68511;SHT31;55512;50.102;19.958;2024-01-30T04:40:53;-2.07;85.87
68511;SHT31;55512;50.102;19.958;2024-01-30T04:43:19;-2.06;85.87
68511;SHT31;55512;50.102;19.958;2024-01-30T04:45:45;-2.02;86.00
68511;SHT31;55512;50.102;19.958;2024-01-30T04:51:43;-2.01;85.99
68511;SHT31;55512;50.102;19.958;2024-01-30T05:02:12;-2.19;85.68
68511;SHT31;55512;50.102;19.958;2024-01-30T05:08:36;-2.39;85.50
68511;SHT31;55512;50.102;19.958;2024-01-30T05:11:44;-2.46;85.41
68511;SHT31;55512;50.102;19.958;2024-01-30T05:14:30;-2.51;85.40
68511;SHT31;55512;50.102;19.958;2024-01-30T05:20:36;-2.44;85.58
68511;SHT31;55512;50.102;19.958;2024-01-30T05:24:07;-2.43;85.54
68511;SHT31;55512;50.102;19.958;2024-01-30T05:26:35;-2.52;85.45
68511;SHT31;55512;50.102;19.958;2024-01-30T05:29:24;-2.55;85.40
68511;SHT31;55512;50.102;19.958;2024-01-30T05:31:50;-2.59;85.33
68511;SHT31;55512;50.102;19.958;2024-01-30T05:37:21;-2.49;85.52
68511;SHT31;55512;50.102;19.958;2024-01-30T05:39:57;-2.51;85.48
68511;SHT31;55512;50.102;19.958;2024-01-30T05:42:49;-2.57;85.37
68511;SHT31;55512;50.102;19.958;2024-01-30T05:45:24;-2.57;85.34
68511;SHT31;55512;50.102;19.958;2024-01-30T05:48:42;-2.47;85.54
68511;SHT31;55512;50.102;19.958;2024-01-30T05:52:03;-2.43;85.50
68511;SHT31;55512;50.102;19.958;2024-01-30T05:54:44;-2.39;85.60
68511;SHT31;55512;50.102;19.958;2024-01-30T05:57:31;-2.38;85.59
68511;SHT31;55512;50.102;19.958;2024-01-30T06:00:29;-2.33;85.61
68511;SHT31;55512;50.102;19.958;2024-01-30T06:03:21;-2.33;85.59
68511;SHT31;55512;50.102;19.958;2024-01-30T06:09:08;-2.39;85.45
68511;SHT31;55512;50.102;19.958;2024-01-30T06:11:53;-2.40;85.47
68511;SHT31;55512;50.102;19.958;2024-01-30T06:14:23;-2.39;85.48
68511;SHT31;55512;50.102;19.958;2024-01-30T06:16:58;-2.38;85.50
68511;SHT31;55512;50.102;19.958;2024-01-30T06:19:30;-2.33;85.50
68511;SHT31;55512;50.102;19.958;2024-01-30T06:22:19;-2.28;85.50
68511;SHT31;55512;50.102;19.958;2024-01-30T06:24:56;-2.20;85.39
68511;SHT31;55512;50.102;19.958;2024-01-30T06:27:36;-2.13;85.08
68511;SHT31;55512;50.102;19.958;2024-01-30T06:33:24;-1.95;84.72
68511;SHT31;55512;50.102;19.958;2024-01-30T06:41:50;-1.75;83.70
68511;SHT31;55512;50.102;19.958;2024-01-30T06:44:42;-1.68;83.70
68511;SHT31;55512;50.102;19.958;2024-01-30T06:50:41;-1.48;83.70
68511;SHT31;55512;50.102;19.958;2024-01-30T06:53:13;-1.39;83.70
68511;SHT31;55512;50.102;19.958;2024-01-30T06:55:44;-1.32;83.70
68511;SHT31;55512;50.102;19.958;2024-01-30T06:58:41;-1.32;83.76
68511;SHT31;55512;50.102;19.958;2024-01-30T07:04:29;-1.15;83.76
68511;SHT31;55512;50.102;19.958;2024-01-30T07:07:00;-1.08;83.61
68511;SHT31;55512;50.102;19.958;2024-01-30T07:09:30;-1.26;84.10
68511;SHT31;55512;50.102;19.958;2024-01-30T07:12:39;-1.38;84.76
68511;SHT31;55512;50.102;19.958;2024-01-30T07:18:49;-1.22;84.64
68511;SHT31;55512;50.102;19.958;2024-01-30T07:21:21;-1.23;84.90
68511;SHT31;55512;50.102;19.958;2024-01-30T07:27:01;-1.05;84.94
68511;SHT31;55512;50.102;19.958;2024-01-30T07:29:43;-0.97;85.03
68511;SHT31;55512;50.102;19.958;2024-01-30T07:32:21;-0.88;85.10
68511;SHT31;55512;50.102;19.958;2024-01-30T07:35:14;-0.76;85.10
68511;SHT31;55512;50.102;19.958;2024-01-30T07:37:52;-0.70;85.10
68511;SHT31;55512;50.102;19.958;2024-01-30T07:40:34;-0.67;85.02
68511;SHT31;55512;50.102;19.958;2024-01-30T07:43:28;-0.64;84.92
68511;SHT31;55512;50.102;19.958;2024-01-30T07:46:18;-0.57;84.99
68511;SHT31;55512;50.102;19.958;2024-01-30T07:48:44;-0.47;85.08
68511;SHT31;55512;50.102;19.958;2024-01-30T07:51:22;-0.37;85.10
68511;SHT31;55512;50.102;19.958;2024-01-30T07:54:05;-0.27;85.10
68511;SHT31;55512;50.102;19.958;2024-01-30T07:57:13;-0.18;85.03
68511;SHT31;55512;50.102;19.958;2024-01-30T08:00:20;-0.11;84.98
68511;SHT31;55512;50.102;19.958;2024-01-30T08:06:11;-0.01;84.86
68511;SHT31;55512;50.102;19.958;2024-01-30T08:08:39;0.07;84.72
68511;SHT31;55512;50.102;19.958;2024-01-30T08:11:08;0.43;83.83
68511;SHT31;55512;50.102;19.958;2024-01-30T08:13:39;0.56;83.36
68511;SHT31;55512;50.102;19.958;2024-01-30T08:16:10;0.62;83.18
68511;SHT31;55512;50.102;19.958;2024-01-30T08:18:41;0.47;83.54
68511;SHT31;55512;50.102;19.958;2024-01-30T08:21:18;0.34;84.20
68511;SHT31;55512;50.102;19.958;2024-01-30T08:24:12;0.36;84.36
68511;SHT31;55512;50.102;19.958;2024-01-30T08:27:07;0.42;84.41
68511;SHT31;55512;50.102;19.958;2024-01-30T08:32:40;0.54;84.43
68511;SHT31;55512;50.102;19.958;2024-01-30T08:38:11;0.69;84.31
68511;SHT31;55512;50.102;19.958;2024-01-30T08:41:02;0.79;84.27
68511;SHT31;55512;50.102;19.958;2024-01-30T08:44:18;0.90;84.13
68511;SHT31;55512;50.102;19.958;2024-01-30T08:47:13;0.99;84.01
68511;SHT31;55512;50.102;19.958;2024-01-30T08:50:01;1.11;83.89
68511;SHT31;55512;50.102;19.958;2024-01-30T08:52:48;1.45;83.21
68511;SHT31;55512;50.102;19.958;2024-01-30T08:55:16;1.74;82.31
68511;SHT31;55512;50.102;19.958;2024-01-30T08:57:42;1.86;81.94
68511;SHT31;55512;50.102;19.958;2024-01-30T09:00:19;1.95;81.62
68511;SHT31;55512;50.102;19.958;2024-01-30T09:03:05;1.96;81.51
68511;SHT31;55512;50.102;19.958;2024-01-30T09:05:36;1.85;81.87
68511;SHT31;55512;50.102;19.958;2024-01-30T09:08:31;1.78;82.03
68511;SHT31;55512;50.102;19.958;2024-01-30T09:11:41;1.86;81.75
68511;SHT31;55512;50.102;19.958;2024-01-30T09:24:31;2.67;79.36
68511;SHT31;55512;50.102;19.958;2024-01-30T09:27:00;2.76;79.13
68511;SHT31;55512;50.102;19.958;2024-01-30T09:29:49;2.84;78.82
68511;SHT31;55512;50.102;19.958;2024-01-30T09:32:29;2.92;78.52
68511;SHT31;55512;50.102;19.958;2024-01-30T09:35:12;3.01;78.18
68511;SHT31;55512;50.102;19.958;2024-01-30T09:37:41;3.07;77.94
68511;SHT31;55512;50.102;19.958;2024-01-30T09:40:10;3.15;77.70
68511;SHT31;55512;50.102;19.958;2024-01-30T09:42:46;3.23;77.56
68511;SHT31;55512;50.102;19.958;2024-01-30T09:50:09;3.46;76.82
68511;SHT31;55512;50.102;19.958;2024-01-30T09:53:22;3.53;76.70
68511;SHT31;55512;50.102;19.958;2024-01-30T09:56:33;3.60;76.38
68511;SHT31;55512;50.102;19.958;2024-01-30T09:59:42;3.69;75.99
68511;SHT31;55512;50.102;19.958;2024-01-30T10:02:12;3.76;75.61
68511;SHT31;55512;50.102;19.958;2024-01-30T10:04:44;3.83;75.45
68511;SHT31;55512;50.102;19.958;2024-01-30T10:07:30;3.91;75.33
68511;SHT31;55512;50.102;19.958;2024-01-30T10:10:01;3.97;75.11
68511;SHT31;55512;50.102;19.958;2024-01-30T10:12:54;4.05;74.92
68511;SHT31;55512;50.102;19.958;2024-01-30T10:18:47;4.20;74.38
68511;SHT31;55512;50.102;19.958;2024-01-30T10:21:16;4.28;74.12
68511;SHT31;55512;50.102;19.958;2024-01-30T10:23:43;4.36;73.98
68511;SHT31;55512;50.102;19.958;2024-01-30T10:26:17;4.45;73.90
68511;SHT31;55512;50.102;19.958;2024-01-30T10:28:55;4.51;73.82
68511;SHT31;55512;50.102;19.958;2024-01-30T10:31:44;4.61;73.67
68511;SHT31;55512;50.102;19.958;2024-01-30T10:34:19;4.67;73.43
68511;SHT31;55512;50.102;19.958;2024-01-30T10:37:04;4.73;73.20
68511;SHT31;55512;50.102;19.958;2024-01-30T10:39:40;4.85;72.77
68511;SHT31;55512;50.102;19.958;2024-01-30T10:42:13;4.97;72.39
68511;SHT31;55512;50.102;19.958;2024-01-30T10:45:09;5.07;71.50
68511;SHT31;55512;50.102;19.958;2024-01-30T10:47:50;5.17;70.42
68511;SHT31;55512;50.102;19.958;2024-01-30T10:50:53;5.30;70.54
68511;SHT31;55512;50.102;19.958;2024-01-30T10:53:25;5.33;70.65
68511;SHT31;55512;50.102;19.958;2024-01-30T10:55:58;5.37;70.40
68511;SHT31;55512;50.102;19.958;2024-01-30T10:58:38;5.49;69.72
68511;SHT31;55512;50.102;19.958;2024-01-30T11:01:14;5.59;69.61
68511;SHT31;55512;50.102;19.958;2024-01-30T11:07:01;5.74;69.19
68511;SHT31;55512;50.102;19.958;2024-01-30T11:09:48;5.81;69.22
68511;SHT31;55512;50.102;19.958;2024-01-30T11:12:24;5.87;68.99
68511;SHT31;55512;50.102;19.958;2024-01-30T11:15:14;5.94;68.95
68511;SHT31;55512;50.102;19.958;2024-01-30T11:17:44;6.02;68.55
68511;SHT31;55512;50.102;19.958;2024-01-30T11:20:21;6.09;68.50
68511;SHT31;55512;50.102;19.958;2024-01-30T11:22:53;6.14;68.54
68511;SHT31;55512;50.102;19.958;2024-01-30T11:25:27;6.21;68.03
68511;SHT31;55512;50.102;19.958;2024-01-30T11:28:00;6.29;67.73
68511;SHT31;55512;50.102;19.958;2024-01-30T11:30:40;6.36;66.82
68511;SHT31;55512;50.102;19.958;2024-01-30T11:33:30;6.42;66.02
68511;SHT31;55512;50.102;19.958;2024-01-30T11:36:01;6.49;65.49
68511;SHT31;55512;50.102;19.958;2024-01-30T11:39:00;6.56;64.99
68511;SHT31;55512;50.102;19.958;2024-01-30T11:42:13;6.66;64.38
68511;SHT31;55512;50.102;19.958;2024-01-30T11:46:15;6.77;63.36
68511;SHT31;55512;50.102;19.958;2024-01-30T11:48:57;6.84;63.26
68511;SHT31;55512;50.102;19.958;2024-01-30T11:51:23;6.90;63.13
68511;SHT31;55512;50.102;19.958;2024-01-30T11:54:10;7.00;62.65
68511;SHT31;55512;50.102;19.958;2024-01-30T11:57:37;7.19;62.52
68511;SHT31;55512;50.102;19.958;2024-01-30T12:00:13;7.33;62.60
68511;SHT31;55512;50.102;19.958;2024-01-30T12:03:49;7.48;62.55
68511;SHT31;55512;50.102;19.958;2024-01-30T12:10:55;7.88;61.68
68511;SHT31;55512;50.102;19.958;2024-01-30T12:14:30;8.09;61.59
68511;SHT31;55512;50.102;19.958;2024-01-30T12:17:00;8.19;61.01
68511;SHT31;55512;50.102;19.958;2024-01-30T12:20:33;8.41;60.03
68511;SHT31;55512;50.102;19.958;2024-01-30T12:23:32;8.60;59.05
68511;SHT31;55512;50.102;19.958;2024-01-30T12:29:55;8.92;58.64
68511;SHT31;55512;50.102;19.958;2024-01-30T12:36:35;9.31;58.11
68511;SHT31;55512;50.102;19.958;2024-01-30T12:40:05;9.63;58.10
68511;SHT31;55512;50.102;19.958;2024-01-30T12:42:42;10.06;57.15
68511;SHT31;55512;50.102;19.958;2024-01-30T12:45:44;10.79;56.21
68511;SHT31;55512;50.102;19.958;2024-01-30T12:48:35;11.81;55.14
68511;SHT31;55512;50.102;19.958;2024-01-30T12:51:24;12.93;53.72
68511;SHT31;55512;50.102;19.958;2024-01-30T12:58:18;15.56;51.68
68511;SHT31;55512;50.102;19.958;2024-01-30T13:01:24;16.87;50.64
68511;SHT31;55512;50.102;19.958;2024-01-30T13:07:30;19.36;47.47
68511;SHT31;55512;50.102;19.958;2024-01-30T13:13:18;21.44;44.08
68511;SHT31;55512;50.102;19.958;2024-01-30T13:16:00;22.30;42.48
68511;SHT31;55512;50.102;19.958;2024-01-30T13:37:04;26.23;34.82
68511;SHT31;55512;50.102;19.958;2024-01-30T13:40:25;26.66;33.77
68511;SHT31;55512;50.102;19.958;2024-01-30T13:43:54;26.94;32.12
68511;SHT31;55512;50.102;19.958;2024-01-30T13:50:56;26.72;30.63
68511;SHT31;55512;50.102;19.958;2024-01-30T14:04:50;27.50;27.80
68511;SHT31;55512;50.102;19.958;2024-01-30T14:07:21;27.13;27.72
68511;SHT31;55512;50.102;19.958;2024-01-30T14:13:12;26.74;27.09
68511;SHT31;55512;50.102;19.958;2024-01-30T14:15:46;26.63;27.06
68511;SHT31;55512;50.102;19.958;2024-01-30T14:22:32;26.19;26.61
68511;SHT31;55512;50.102;19.958;2024-01-30T14:25:27;25.87;26.72
68511;SHT31;55512;50.102;19.958;2024-01-30T14:32:09;24.96;26.26
68511;SHT31;55512;50.102;19.958;2024-01-30T14:39:09;24.05;27.22
68511;SHT31;55512;50.102;19.958;2024-01-30T14:42:08;23.86;27.34
68511;SHT31;55512;50.102;19.958;2024-01-30T14:45:37;23.07;26.83
68511;SHT31;55512;50.102;19.958;2024-01-30T14:52:10;20.84;28.20
68511;SHT31;55512;50.102;19.958;2024-01-30T14:58:55;19.17;29.06
68511;SHT31;55512;50.102;19.958;2024-01-30T15:02:02;18.85;29.67
68511;SHT31;55512;50.102;19.958;2024-01-30T15:05:19;18.08;30.02
68511;SHT31;55512;50.102;19.958;2024-01-30T15:07:33;17.25;31.14
68511;SHT31;55512;50.102;19.958;2024-01-30T15:13:12;15.01;34.60
68511;SHT31;55512;50.102;19.958;2024-01-30T15:16:01;14.11;36.33
68511;SHT31;55512;50.102;19.958;2024-01-30T15:19:06;13.19;38.21
68511;SHT31;55512;50.102;19.958;2024-01-30T15:22:02;12.30;40.01
68511;SHT31;55512;50.102;19.958;2024-01-30T15:28:08;10.60;43.56
68511;SHT31;55512;50.102;19.958;2024-01-30T15:30:43;10.01;44.95
68511;SHT31;55512;50.102;19.958;2024-01-30T15:33:13;9.37;46.33
68511;SHT31;55512;50.102;19.958;2024-01-30T15:35:48;8.82;47.46
68511;SHT31;55512;50.102;19.958;2024-01-30T15:38:17;8.38;48.62
68511;SHT31;55512;50.102;19.958;2024-01-30T15:40:46;8.02;49.64
68511;SHT31;55512;50.102;19.958;2024-01-30T15:43:48;7.71;50.62
68511;SHT31;55512;50.102;19.958;2024-01-30T15:46:16;7.49;51.39
68511;SHT31;55512;50.102;19.958;2024-01-30T15:48:50;7.26;51.92
68511;SHT31;55512;50.102;19.958;2024-01-30T15:51:28;7.03;52.51
68511;SHT31;55512;50.102;19.958;2024-01-30T15:57:19;6.61;53.93
68511;SHT31;55512;50.102;19.958;2024-01-30T15:59:45;6.46;54.50
68511;SHT31;55512;50.102;19.958;2024-01-30T16:02:16;6.31;54.99
68511;SHT31;55512;50.102;19.958;2024-01-30T16:04:54;6.15;55.53
68511;SHT31;55512;50.102;19.958;2024-01-30T16:07:20;6.04;55.95
68511;SHT31;55512;50.102;19.958;2024-01-30T16:09:51;5.93;56.27
68511;SHT31;55512;50.102;19.958;2024-01-30T16:12:22;5.80;56.59
68511;SHT31;55512;50.102;19.958;2024-01-30T16:14:53;5.67;56.97
68511;SHT31;55512;50.102;19.958;2024-01-30T16:17:22;5.55;57.49
68511;SHT31;55512;50.102;19.958;2024-01-30T16:26:14;5.25;58.81
68511;SHT31;55512;50.102;19.958;2024-01-30T16:32:37;4.99;59.43
68511;SHT31;55512;50.102;19.958;2024-01-30T16:35:34;4.89;59.77
68511;SHT31;55512;50.102;19.958;2024-01-30T16:38:46;4.79;60.16
68511;SHT31;55512;50.102;19.958;2024-01-30T16:41:32;4.69;60.40
68511;SHT31;55512;50.102;19.958;2024-01-30T16:44:07;4.64;60.68
68511;SHT31;55512;50.102;19.958;2024-01-30T16:47:18;4.58;61.16
68511;SHT31;55512;50.102;19.958;2024-01-30T16:49:46;4.51;61.47
68511;SHT31;55512;50.102;19.958;2024-01-30T16:52:20;4.45;61.59
68511;SHT31;55512;50.102;19.958;2024-01-30T16:54:58;4.42;61.84
68511;SHT31;55512;50.102;19.958;2024-01-30T16:57:27;4.38;62.07
68511;SHT31;55512;50.102;19.958;2024-01-30T17:00:22;4.32;62.34
68511;SHT31;55512;50.102;19.958;2024-01-30T17:02:48;4.25;62.54
68511;SHT31;55512;50.102;19.958;2024-01-30T17:05:14;4.15;62.76
68511;SHT31;55512;50.102;19.958;2024-01-30T17:08:21;4.08;63.07
68511;SHT31;55512;50.102;19.958;2024-01-30T17:11:15;4.01;63.46
68511;SHT31;55512;50.102;19.958;2024-01-30T17:13:50;3.92;63.81
68511;SHT31;55512;50.102;19.958;2024-01-30T17:16:56;3.86;64.15
68511;SHT31;55512;50.102;19.958;2024-01-30T17:19:36;3.75;64.29
68511;SHT31;55512;50.102;19.958;2024-01-30T17:22:17;3.68;64.65
68511;SHT31;55512;50.102;19.958;2024-01-30T17:28:49;3.62;65.11
68511;SHT31;55512;50.102;19.958;2024-01-30T17:31:31;3.59;65.43
68511;SHT31;55512;50.102;19.958;2024-01-30T17:37:58;3.58;66.12
68511;SHT31;55512;50.102;19.958;2024-01-30T17:43:26;3.41;66.16
68511;SHT31;55512;50.102;19.958;2024-01-30T17:45:57;3.33;66.38
68511;SHT31;55512;50.102;19.958;2024-01-30T17:49:09;3.26;66.55
68511;SHT31;55512;50.102;19.958;2024-01-30T17:57:03;2.95;66.86
68511;SHT31;55512;50.102;19.958;2024-01-30T17:59:32;2.87;67.17
68511;SHT31;55512;50.102;19.958;2024-01-30T18:05:13;2.83;67.39
68511;SHT31;55512;50.102;19.958;2024-01-30T18:08:19;2.85;67.41
68511;SHT31;55512;50.102;19.958;2024-01-30T18:10:53;2.89;67.49
68511;SHT31;55512;50.102;19.958;2024-01-30T18:13:29;2.90;67.41
68511;SHT31;55512;50.102;19.958;2024-01-30T18:16:20;2.89;67.30
68511;SHT31;55512;50.102;19.958;2024-01-30T18:19:46;2.83;67.20
68511;SHT31;55512;50.102;19.958;2024-01-30T18:22:25;2.81;67.27
68511;SHT31;55512;50.102;19.958;2024-01-30T18:25:25;2.82;67.27
68511;SHT31;55512;50.102;19.958;2024-01-30T18:28:18;2.79;67.27
68511;SHT31;55512;50.102;19.958;2024-01-30T18:31:35;2.81;67.40
68511;SHT31;55512;50.102;19.958;2024-01-30T18:34:27;2.78;67.32
68511;SHT31;55512;50.102;19.958;2024-01-30T18:37:06;2.74;67.41
68511;SHT31;55512;50.102;19.958;2024-01-30T18:39:45;2.64;67.52
68511;SHT31;55512;50.102;19.958;2024-01-30T18:42:11;2.63;67.65
68511;SHT31;55512;50.102;19.958;2024-01-30T18:44:49;2.61;67.76
68511;SHT31;55512;50.102;19.958;2024-01-30T18:47:15;2.60;67.96
68511;SHT31;55512;50.102;19.958;2024-01-30T18:49:43;2.59;67.99
68511;SHT31;55512;50.102;19.958;2024-01-30T18:52:20;2.55;68.05
68511;SHT31;55512;50.102;19.958;2024-01-30T18:55:02;2.48;68.32
68511;SHT31;55512;50.102;19.958;2024-01-30T19:00:04;2.38;68.56
68511;SHT31;55512;50.102;19.958;2024-01-30T19:02:48;2.26;68.59
68511;SHT31;55512;50.102;19.958;2024-01-30T19:05:14;2.18;68.93
68511;SHT31;55512;50.102;19.958;2024-01-30T19:07:40;2.16;68.95
68511;SHT31;55512;50.102;19.958;2024-01-30T19:10:14;2.06;68.85
68511;SHT31;55512;50.102;19.958;2024-01-30T19:13:32;1.92;69.12
68511;SHT31;55512;50.102;19.958;2024-01-30T19:16:25;1.85;69.24
68511;SHT31;55512;50.102;19.958;2024-01-30T19:19:24;1.73;69.47
68511;SHT31;55512;50.102;19.958;2024-01-30T19:21:49;1.71;69.67
68511;SHT31;55512;50.102;19.958;2024-01-30T19:24:56;1.77;69.71
68511;SHT31;55512;50.102;19.958;2024-01-30T19:27:27;1.85;69.85
68511;SHT31;55512;50.102;19.958;2024-01-30T19:30:23;1.91;69.91
68511;SHT31;55512;50.102;19.958;2024-01-30T19:35:59;1.98;69.89
68511;SHT31;55512;50.102;19.958;2024-01-30T19:38:51;2.05;69.90
68511;SHT31;55512;50.102;19.958;2024-01-30T19:44:24;2.12;69.73
68511;SHT31;55512;50.102;19.958;2024-01-30T19:50:22;2.14;69.77
68511;SHT31;55512;50.102;19.958;2024-01-30T19:53:11;2.13;69.74
68511;SHT31;55512;50.102;19.958;2024-01-30T19:56:35;2.06;69.69
68511;SHT31;55512;50.102;19.958;2024-01-30T19:59:31;2.02;69.82
68511;SHT31;55512;50.102;19.958;2024-01-30T20:02:45;1.98;69.90
68511;SHT31;55512;50.102;19.958;2024-01-30T20:05:20;1.93;69.92
68511;SHT31;55512;50.102;19.958;2024-01-30T20:07:51;1.89;69.89
68511;SHT31;55512;50.102;19.958;2024-01-30T20:10:42;1.92;70.00
68511;SHT31;55512;50.102;19.958;2024-01-30T20:13:10;1.91;69.94
68511;SHT31;55512;50.102;19.958;2024-01-30T20:19:49;1.96;70.21
68511;SHT31;55512;50.102;19.958;2024-01-30T20:22:18;2.01;70.34
68511;SHT31;55512;50.102;19.958;2024-01-30T20:24:44;2.08;70.39
68511;SHT31;55512;50.102;19.958;2024-01-30T20:27:10;2.20;70.38
68511;SHT31;55512;50.102;19.958;2024-01-30T20:29:36;2.26;70.14
68511;SHT31;55512;50.102;19.958;2024-01-30T20:32:03;2.25;70.02
68511;SHT31;55512;50.102;19.958;2024-01-30T20:34:29;2.20;69.97
68511;SHT31;55512;50.102;19.958;2024-01-30T20:36:55;2.18;69.98
68511;SHT31;55512;50.102;19.958;2024-01-30T20:39:21;2.15;69.97
68511;SHT31;55512;50.102;19.958;2024-01-30T20:41:49;2.14;70.02
68511;SHT31;55512;50.102;19.958;2024-01-30T20:44:18;2.13;69.96
68511;SHT31;55512;50.102;19.958;2024-01-30T20:46:57;2.17;69.86
68511;SHT31;55512;50.102;19.958;2024-01-30T20:49:25;2.20;69.69
68511;SHT31;55512;50.102;19.958;2024-01-30T20:55:31;2.35;69.10
68511;SHT31;55512;50.102;19.958;2024-01-30T20:58:41;2.43;68.73
68511;SHT31;55512;50.102;19.958;2024-01-30T21:01:12;2.42;68.45
68511;SHT31;55512;50.102;19.958;2024-01-30T21:04:07;2.43;68.26
68511;SHT31;55512;50.102;19.958;2024-01-30T21:06:48;2.42;68.08
68511;SHT31;55512;50.102;19.958;2024-01-30T21:09:17;2.42;67.92
68511;SHT31;55512;50.102;19.958;2024-01-30T21:12:19;2.39;67.79
68511;SHT31;55512;50.102;19.958;2024-01-30T21:15:56;2.42;67.57
68511;SHT31;55512;50.102;19.958;2024-01-30T21:18:26;2.40;67.48
68511;SHT31;55512;50.102;19.958;2024-01-30T21:21:28;2.42;67.44
68511;SHT31;55512;50.102;19.958;2024-01-30T21:24:32;2.37;67.41
68511;SHT31;55512;50.102;19.958;2024-01-30T21:27:07;2.36;67.50
68511;SHT31;55512;50.102;19.958;2024-01-30T21:30:02;2.38;67.42
68511;SHT31;55512;50.102;19.958;2024-01-30T21:33:29;2.38;67.31
68511;SHT31;55512;50.102;19.958;2024-01-30T21:36:36;2.36;67.25
68511;SHT31;55512;50.102;19.958;2024-01-30T21:39:17;2.38;67.16
68511;SHT31;55512;50.102;19.958;2024-01-30T21:41:59;2.33;67.11
68511;SHT31;55512;50.102;19.958;2024-01-30T21:48:07;2.26;67.20
68511;SHT31;55512;50.102;19.958;2024-01-30T21:51:19;2.17;67.14
68511;SHT31;55512;50.102;19.958;2024-01-30T21:53:55;2.06;67.25
68511;SHT31;55512;50.102;19.958;2024-01-30T21:59:52;1.87;67.60
68511;SHT31;55512;50.102;19.958;2024-01-30T22:03:30;1.69;67.76
68511;SHT31;55512;50.102;19.958;2024-01-30T22:06:21;1.56;68.13
68511;SHT31;55512;50.102;19.958;2024-01-30T22:09:10;1.46;68.38
68511;SHT31;55512;50.102;19.958;2024-01-30T22:12:00;1.32;68.66
68511;SHT31;55512;50.102;19.958;2024-01-30T22:15:00;1.18;69.13
68511;SHT31;55512;50.102;19.958;2024-01-30T22:24:09;0.81;70.44
68511;SHT31;55512;50.102;19.958;2024-01-30T22:26:59;0.72;70.79
68511;SHT31;55512;50.102;19.958;2024-01-30T22:29:50;0.63;70.98
68511;SHT31;55512;50.102;19.958;2024-01-30T22:32:19;0.56;71.28
68511;SHT31;55512;50.102;19.958;2024-01-30T22:37:55;0.44;71.84
68511;SHT31;55512;50.102;19.958;2024-01-30T22:40:41;0.40;72.10
68511;SHT31;55512;50.102;19.958;2024-01-30T22:46:14;0.27;72.61
68511;SHT31;55512;50.102;19.958;2024-01-30T22:49:23;0.25;73.01
68511;SHT31;55512;50.102;19.958;2024-01-30T22:52:29;0.16;73.09